createdAt,value
2023-01-08T00:01:31.729Z,2.30
2023-01-08T00:04:18.696Z,2.40
2023-01-08T00:06:59.727Z,2.40
2023-01-08T00:09:48.388Z,2.40
2023-01-08T00:12:29.729Z,2.40
2023-01-08T00:15:16.975Z,2.40
2023-01-08T00:17:57.424Z,2.30
2023-01-08T00:20:49.034Z,2.40
2023-01-08T00:23:30.901Z,2.40
2023-01-08T00:26:17.748Z,2.30
2023-01-08T00:28:59.333Z,2.40
2023-01-08T00:31:46.922Z,2.50
2023-01-08T00:34:27.388Z,2.40
2023-01-08T00:37:14.752Z,2.40
2023-01-08T00:39:55.542Z,2.40
2023-01-08T00:42:42.560Z,2.40
2023-01-08T00:45:37.922Z,2.40
2023-01-08T00:48:25.417Z,2.40
2023-01-08T00:51:08.935Z,2.50
2023-01-08T00:53:57.279Z,2.50
2023-01-08T00:56:38.537Z,2.50
2023-01-08T00:59:25.679Z,2.60
2023-01-08T01:02:07.046Z,2.60
2023-01-08T01:04:54.428Z,2.60
2023-01-08T01:07:41.530Z,2.70
2023-01-08T01:10:23.595Z,2.70
2023-01-08T01:13:10.575Z,2.60
2023-01-08T01:15:51.575Z,2.60
2023-01-08T01:18:38.607Z,2.60
2023-01-08T01:21:24.679Z,2.60
2023-01-08T01:24:13.880Z,2.50
2023-01-08T01:26:56.779Z,2.40
2023-01-08T01:29:43.577Z,2.50
2023-01-08T01:32:24.545Z,2.30
2023-01-08T01:35:12.783Z,2.40
2023-01-08T01:37:53.846Z,2.50
2023-01-08T01:40:40.987Z,2.70
2023-01-08T01:43:22.053Z,2.70
2023-01-08T01:46:09.914Z,2.70
2023-01-08T01:48:50.414Z,2.70
2023-01-08T01:51:41.585Z,2.70
2023-01-08T01:54:24.792Z,2.60
2023-01-08T01:57:13.511Z,2.60
2023-01-08T01:59:55.986Z,2.50
2023-01-08T02:02:53.589Z,2.40
2023-01-08T02:05:42.866Z,2.30
2023-01-08T02:08:59.504Z,2.20
2023-01-08T02:12:11.071Z,2.10
2023-01-08T02:15:04.937Z,2.20
2023-01-08T02:18:12.637Z,2.10
2023-01-08T02:21:14.484Z,2.10
2023-01-08T02:24:16.926Z,2.10
2023-01-08T02:27:06.534Z,2.10
2023-01-08T02:29:48.714Z,2.10
2023-01-08T02:32:43.668Z,2.10
2023-01-08T02:35:24.570Z,2.00
2023-01-08T02:38:12.572Z,2.00
2023-01-08T02:41:11.738Z,2.00
2023-01-08T02:44:01.787Z,2.00
2023-01-08T02:46:56.568Z,2.00
2023-01-08T02:49:48.891Z,1.80
2023-01-08T02:52:33.664Z,1.80
2023-01-08T02:55:22.554Z,1.80
2023-01-08T02:58:05.155Z,1.80
2023-01-08T03:00:53.495Z,1.70
2023-01-08T03:03:37.085Z,1.40
2023-01-08T03:06:28.047Z,1.60
2023-01-08T03:09:09.672Z,1.40
2023-01-08T03:12:34.552Z,1.50
2023-01-08T03:15:18.468Z,1.30
2023-01-08T03:18:11.536Z,1.30
2023-01-08T03:20:54.478Z,1.20
2023-01-08T03:23:43.816Z,1.10
2023-01-08T03:26:29.846Z,1.20
2023-01-08T03:29:21.611Z,1.30
2023-01-08T03:32:09.934Z,1.20
2023-01-08T03:34:57.517Z,1.30
2023-01-08T03:37:42.665Z,1.40
2023-01-08T03:40:46.616Z,1.50
2023-01-08T03:43:29.442Z,1.50
2023-01-08T03:46:28.642Z,1.50
2023-01-08T03:49:10.678Z,1.50
2023-01-08T03:51:57.378Z,1.50
2023-01-08T03:54:41.587Z,1.50
2023-01-08T03:57:28.518Z,1.50
2023-01-08T04:00:09.662Z,1.40
2023-01-08T04:02:56.904Z,1.40
2023-01-08T04:05:37.576Z,1.30
2023-01-08T04:08:24.879Z,1.10
2023-01-08T04:11:05.821Z,1.00
2023-01-08T04:13:52.888Z,1.00
2023-01-08T04:16:35.030Z,0.90
2023-01-08T04:19:21.662Z,0.90
2023-01-08T04:22:02.550Z,0.90
2023-01-08T04:24:49.831Z,0.90
2023-01-08T04:27:30.912Z,0.90
2023-01-08T04:30:18.685Z,1.00
2023-01-08T04:32:59.969Z,0.80
2023-01-08T04:35:46.709Z,0.90
2023-01-08T04:38:27.693Z,0.90
2023-01-08T04:41:14.561Z,1.00
2023-01-08T04:43:55.766Z,1.00
2023-01-08T04:46:43.739Z,1.00
2023-01-08T04:49:24.741Z,1.10
2023-01-08T04:52:11.836Z,1.00
2023-01-08T04:54:52.762Z,1.10
2023-01-08T04:57:40.500Z,1.20
2023-01-08T05:00:21.531Z,1.30
2023-01-08T05:03:09.033Z,1.40
2023-01-08T05:05:50.047Z,1.50
2023-01-08T05:08:36.674Z,1.50
2023-01-08T05:11:18.067Z,1.50
2023-01-08T05:14:04.995Z,1.60
2023-01-08T05:16:45.636Z,1.50
2023-01-08T05:19:32.694Z,1.60
2023-01-08T05:22:13.738Z,1.50
2023-01-08T05:25:00.604Z,1.40
2023-01-08T05:27:42.000Z,1.50
2023-01-08T05:30:28.670Z,1.50
2023-01-08T05:33:09.751Z,1.60
2023-01-08T05:35:56.614Z,1.40
2023-01-08T05:38:37.897Z,1.40
2023-01-08T05:41:24.714Z,1.50
2023-01-08T05:44:05.593Z,1.60
2023-01-08T05:46:59.809Z,1.60
2023-01-08T05:49:46.550Z,1.60
2023-01-08T05:52:27.713Z,1.70
2023-01-08T05:55:14.905Z,1.70
2023-01-08T05:57:55.951Z,1.40
2023-01-08T06:00:42.938Z,1.20
2023-01-08T06:03:26.614Z,1.30
2023-01-08T06:06:16.326Z,1.40
2023-01-08T06:09:03.675Z,1.30
2023-01-08T06:11:44.730Z,1.40
2023-01-08T06:14:31.643Z,1.20
2023-01-08T06:17:12.883Z,1.30
2023-01-08T06:19:59.784Z,1.40
2023-01-08T06:22:40.580Z,1.20
2023-01-08T06:25:27.670Z,1.20
2023-01-08T06:28:08.622Z,1.10
2023-01-08T06:30:55.944Z,0.90
2023-01-08T06:33:37.730Z,0.80
2023-01-08T06:36:24.765Z,0.90
2023-01-08T06:39:06.076Z,1.00
2023-01-08T06:41:52.633Z,1.00
2023-01-08T06:44:33.724Z,1.00
2023-01-08T06:47:35.589Z,1.00
2023-01-08T06:50:22.962Z,1.10
2023-01-08T06:53:03.782Z,1.10
2023-01-08T06:55:56.418Z,1.10
2023-01-08T06:58:37.612Z,1.20
2023-01-08T07:01:24.934Z,1.20
2023-01-08T07:04:05.726Z,1.30
2023-01-08T07:06:52.941Z,1.30
2023-01-08T07:09:33.700Z,1.30
2023-01-08T07:12:21.633Z,1.30
2023-01-08T07:15:03.059Z,1.20
2023-01-08T07:17:49.746Z,1.10
2023-01-08T07:20:37.673Z,0.90
2023-01-08T07:23:24.685Z,1.00
2023-01-08T07:26:09.743Z,0.90
2023-01-08T07:28:56.864Z,1.00
2023-01-08T07:31:37.816Z,1.00
2023-01-08T07:34:18.375Z,1.00
2023-01-08T07:37:06.640Z,1.20
2023-01-08T07:39:53.875Z,1.20
2023-01-08T07:42:35.162Z,1.20
2023-01-08T07:45:28.789Z,0.90
2023-01-08T07:48:17.663Z,0.90
2023-01-08T07:50:58.665Z,1.00
2023-01-08T07:53:45.606Z,1.20
2023-01-08T07:56:26.629Z,1.30
2023-01-08T07:59:13.607Z,1.50
2023-01-08T08:01:55.309Z,1.50
2023-01-08T08:04:42.704Z,1.40
2023-01-08T08:07:23.713Z,1.10
2023-01-08T08:10:11.978Z,1.20
2023-01-08T08:12:53.135Z,1.50
2023-01-08T08:15:41.157Z,1.60
2023-01-08T08:18:21.952Z,1.90
2023-01-08T08:21:08.837Z,1.80
2023-01-08T08:23:49.807Z,1.90
2023-01-08T08:26:36.807Z,1.80
2023-01-08T08:29:17.856Z,2.00
2023-01-08T08:32:04.653Z,2.30
2023-01-08T08:34:45.937Z,2.40
2023-01-08T08:37:32.739Z,2.60
2023-01-08T08:40:13.928Z,2.10
2023-01-08T08:43:11.156Z,2.10
2023-01-08T08:46:04.693Z,2.60
2023-01-08T08:48:52.970Z,2.40
2023-01-08T08:51:33.975Z,2.30
2023-01-08T08:54:20.741Z,2.90
2023-01-08T08:57:01.761Z,3.30
2023-01-08T08:59:49.883Z,3.30
2023-01-08T09:02:31.124Z,3.10
2023-01-08T09:05:18.710Z,3.30
2023-01-08T09:07:59.950Z,3.80
2023-01-08T09:10:49.067Z,4.10
2023-01-08T09:13:30.294Z,4.30
2023-01-08T09:16:16.810Z,4.50
2023-01-08T09:18:57.914Z,4.60
2023-01-08T09:21:44.945Z,4.50
2023-01-08T09:24:26.079Z,4.80
2023-01-08T09:27:13.979Z,5.30
2023-01-08T09:29:55.840Z,5.70
2023-01-08T09:32:43.194Z,6.00
2023-01-08T09:35:23.805Z,6.10
2023-01-08T09:38:11.365Z,6.10
2023-01-08T09:41:05.891Z,4.30
2023-01-08T09:43:54.804Z,5.20
2023-01-08T09:46:50.063Z,5.80
2023-01-08T09:49:53.535Z,6.10
2023-01-08T09:52:35.365Z,6.00
2023-01-08T09:55:23.845Z,6.40
2023-01-08T09:58:05.967Z,6.60
2023-01-08T10:00:52.964Z,7.40
2023-01-08T10:03:42.248Z,6.60
2023-01-08T10:06:31.141Z,6.90
2023-01-08T10:09:12.228Z,6.80
2023-01-08T10:12:01.845Z,6.90
2023-01-08T10:20:54.770Z,6.60
2023-01-08T10:23:42.415Z,6.20
2023-01-08T10:26:45.462Z,5.80
2023-01-08T10:29:33.983Z,5.40
2023-01-08T10:32:21.375Z,5.60
2023-01-08T10:35:16.694Z,5.30
2023-01-08T10:38:12.557Z,6.20
2023-01-08T10:41:12.486Z,6.10
2023-01-08T10:44:03.702Z,6.20
2023-01-08T10:46:57.409Z,5.80
2023-01-08T10:49:46.963Z,6.10
2023-01-08T10:52:34.574Z,6.70
2023-01-08T10:55:39.267Z,6.70
2023-01-08T10:58:26.561Z,6.80
2023-01-08T11:01:26.275Z,6.80
2023-01-08T11:04:13.933Z,7.00
2023-01-08T11:06:58.105Z,6.90
2023-01-08T11:09:54.704Z,6.80
2023-01-08T11:12:49.302Z,7.00
2023-01-08T11:15:43.122Z,6.70
2023-01-08T11:18:35.432Z,6.70
2023-01-08T11:21:31.420Z,6.90
2023-01-08T11:24:30.499Z,7.10
2023-01-08T11:27:33.277Z,6.80
2023-01-08T11:30:34.084Z,6.90
2023-01-08T11:33:24.568Z,7.30
2023-01-08T11:36:18.295Z,7.30
2023-01-08T11:38:59.001Z,7.30
2023-01-08T11:41:58.808Z,7.20
2023-01-08T11:44:53.338Z,7.40
2023-01-08T11:47:50.041Z,7.20
2023-01-08T11:50:55.895Z,7.20
2023-01-08T11:53:54.177Z,7.60
2023-01-08T11:56:47.246Z,8.10
2023-01-08T11:59:55.057Z,7.50
2023-01-08T12:02:49.206Z,8.00
2023-01-08T12:06:21.294Z,9.20
2023-01-08T12:09:17.540Z,8.80
2023-01-08T12:12:20.267Z,8.80
2023-01-08T12:15:09.967Z,9.20
2023-01-08T12:18:18.895Z,9.00
2023-01-08T12:22:15.962Z,9.60
2023-01-08T12:25:16.001Z,10.10
2023-01-08T12:28:22.029Z,10.00
2023-01-08T12:31:10.019Z,9.50
2023-01-08T12:34:02.352Z,9.10
2023-01-08T12:36:54.373Z,8.90
2023-01-08T12:40:04.503Z,8.90
2023-01-08T12:43:00.433Z,8.20
2023-01-08T12:45:45.544Z,8.40
2023-01-08T12:48:38.890Z,8.40
2023-01-08T12:52:23.265Z,8.20
2023-01-08T12:55:35.885Z,8.30
2023-01-08T12:58:58.501Z,8.30
2023-01-08T13:02:29.016Z,7.90
2023-01-08T13:05:27.327Z,7.80
2023-01-08T13:18:29.591Z,7.50
2023-01-08T13:21:12.581Z,7.40
2023-01-08T13:24:08.201Z,7.30
2023-01-08T13:26:49.346Z,7.20
2023-01-08T13:29:50.990Z,7.10
2023-01-08T13:32:57.363Z,7.00
2023-01-08T13:35:45.309Z,7.00
2023-01-08T13:38:49.832Z,6.90
2023-01-08T13:42:05.569Z,6.90
2023-01-08T13:44:49.615Z,6.90
2023-01-08T13:50:54.499Z,6.90
2023-01-08T14:05:56.151Z,6.70
2023-01-08T14:08:43.527Z,6.70
2023-01-08T14:11:26.076Z,6.60
2023-01-08T14:14:19.353Z,6.60
2023-01-08T14:16:59.955Z,6.60
2023-01-08T14:19:48.208Z,6.50
2023-01-08T14:22:42.343Z,6.60
2023-01-08T14:25:30.115Z,6.50
2023-01-08T14:28:13.964Z,6.50
2023-01-08T14:31:03.118Z,6.50
2023-01-08T14:33:44.979Z,6.50
2023-01-08T14:36:33.626Z,6.50
2023-01-08T14:39:32.356Z,6.40
2023-01-08T14:42:42.812Z,6.20
2023-01-08T14:45:33.443Z,6.00
2023-01-08T14:48:46.483Z,6.10
2023-01-08T14:51:35.309Z,6.10
2023-01-08T14:54:29.211Z,6.10
2023-01-08T14:57:14.321Z,6.00
2023-01-08T15:00:07.659Z,5.90
2023-01-08T15:02:50.060Z,5.80
2023-01-08T15:05:41.850Z,5.70
2023-01-08T15:08:35.713Z,5.70
2023-01-08T15:11:32.515Z,5.60
2023-01-08T15:14:21.483Z,5.70
2023-01-08T15:17:19.263Z,5.70
2023-01-08T15:20:08.220Z,5.50
2023-01-08T15:22:59.357Z,5.40
2023-01-08T15:25:41.645Z,5.30
2023-01-08T15:28:33.458Z,5.30
2023-01-08T15:31:19.043Z,5.50
2023-01-08T15:34:11.553Z,5.50
2023-01-08T15:36:55.377Z,5.60
2023-01-08T15:39:44.420Z,5.60
2023-01-08T15:42:50.125Z,5.60
2023-01-08T15:45:42.539Z,5.60
2023-01-08T15:48:27.203Z,5.50
2023-01-08T15:51:17.026Z,5.50
2023-01-08T15:54:05.477Z,5.50
2023-01-08T15:56:53.139Z,5.50
2023-01-08T15:59:35.848Z,5.50
2023-01-08T16:02:24.280Z,5.40
2023-01-08T16:05:19.852Z,5.40
2023-01-08T16:08:13.820Z,5.50
2023-01-08T16:11:04.365Z,5.60
2023-01-08T16:13:52.551Z,5.50
2023-01-08T16:16:43.065Z,5.50
2023-01-08T16:19:27.665Z,5.60
2023-01-08T16:22:19.857Z,5.50
2023-01-08T16:25:09.134Z,5.50
2023-01-08T16:28:01.126Z,5.40
2023-01-08T16:30:43.254Z,5.30
2023-01-08T16:33:31.173Z,5.40
2023-01-08T16:36:14.211Z,5.50
2023-01-08T16:39:06.617Z,5.50
2023-01-08T16:41:48.989Z,5.40
2023-01-08T16:44:37.177Z,5.40
2023-01-08T16:47:18.211Z,5.30
2023-01-08T16:50:05.496Z,5.40
2023-01-08T16:52:47.870Z,5.50
2023-01-08T16:55:36.907Z,5.50
2023-01-08T16:58:18.682Z,5.40
2023-01-08T17:01:07.535Z,5.40
2023-01-08T17:04:02.008Z,5.50
2023-01-08T17:06:57.135Z,5.40
2023-01-08T17:09:44.489Z,5.50
2023-01-08T17:12:28.906Z,5.40
2023-01-08T17:15:17.259Z,5.40
2023-01-08T17:17:58.652Z,5.40
2023-01-08T17:20:49.604Z,5.50
2023-01-08T17:23:37.142Z,5.50
2023-01-08T17:26:25.529Z,5.40
2023-01-08T17:29:06.550Z,5.50
2023-01-08T17:31:54.251Z,5.40
2023-01-08T17:34:35.608Z,5.40
2023-01-08T17:37:22.318Z,5.40
2023-01-08T17:40:07.401Z,5.40
2023-01-08T17:42:54.645Z,5.30
2023-01-08T17:45:37.241Z,5.40
2023-01-08T17:48:18.898Z,5.40
2023-01-08T17:51:09.440Z,5.20
2023-01-08T17:53:57.899Z,5.10
2023-01-08T17:56:39.291Z,5.20
2023-01-08T17:59:27.611Z,5.30
2023-01-08T18:02:09.832Z,5.40
2023-01-08T18:05:05.470Z,5.40
2023-01-08T18:07:52.057Z,5.40
2023-01-08T18:10:33.075Z,5.30
2023-01-08T18:13:21.346Z,5.40
2023-01-08T18:16:02.458Z,5.50
2023-01-08T18:18:50.414Z,5.40
2023-01-08T18:21:32.586Z,5.40
2023-01-08T18:24:28.730Z,5.30
2023-01-08T18:27:16.644Z,5.30
2023-01-08T18:29:57.315Z,5.50
2023-01-08T18:32:44.787Z,5.50
2023-01-08T18:35:26.393Z,5.50
2023-01-08T18:38:16.069Z,5.70
2023-01-08T18:40:57.579Z,5.90
2023-01-08T18:43:49.239Z,6.10
2023-01-08T18:46:37.005Z,5.90
2023-01-08T18:49:25.231Z,6.00
2023-01-08T18:52:07.215Z,5.90
2023-01-08T18:54:54.737Z,6.10
2023-01-08T18:57:42.759Z,6.10
2023-01-08T19:00:37.370Z,6.10
2023-01-08T19:03:23.029Z,6.10
2023-01-08T19:06:20.102Z,6.10
2023-01-08T19:09:03.027Z,6.10
2023-01-08T19:11:51.973Z,6.00
2023-01-08T19:14:37.208Z,5.90
2023-01-08T19:17:26.199Z,5.90
2023-01-08T19:20:08.446Z,5.80
2023-01-08T19:23:02.271Z,6.10
2023-01-08T19:25:48.092Z,6.40
2023-01-08T19:28:31.261Z,6.40
2023-01-08T19:31:19.709Z,6.50
2023-01-08T19:34:12.162Z,6.50
2023-01-08T19:36:55.295Z,6.50
2023-01-08T19:39:39.485Z,6.50
2023-01-08T19:42:48.850Z,6.60
2023-01-08T19:45:37.647Z,6.60
2023-01-08T19:48:20.764Z,6.50
2023-01-08T19:51:15.448Z,6.60
2023-01-08T19:53:59.672Z,6.60
2023-01-08T19:56:49.971Z,6.60
2023-01-08T19:59:35.082Z,6.70
2023-01-08T20:02:22.785Z,6.60
2023-01-08T20:05:13.600Z,6.50
2023-01-08T20:08:03.074Z,6.50
2023-01-08T20:10:51.849Z,6.50
2023-01-08T20:13:37.766Z,6.40
2023-01-08T20:16:27.890Z,6.40
2023-01-08T20:19:19.541Z,6.40
2023-01-08T20:22:11.552Z,6.30
2023-01-08T20:24:58.512Z,6.40
2023-01-08T20:27:46.824Z,6.50
2023-01-08T20:30:31.003Z,6.50
2023-01-08T20:33:23.850Z,6.50
2023-01-08T20:36:05.917Z,6.70
2023-01-08T20:39:01.067Z,6.70
2023-01-08T20:41:50.271Z,6.60
2023-01-08T20:44:52.748Z,6.50
2023-01-08T20:47:40.693Z,6.50
2023-01-08T20:50:29.073Z,6.40
2023-01-08T20:53:13.392Z,6.30
2023-01-08T20:56:02.190Z,6.20
2023-01-08T20:58:46.950Z,6.20
2023-01-08T21:01:41.759Z,6.10
2023-01-08T21:04:24.591Z,6.10
2023-01-08T21:07:22.062Z,6.10
2023-01-08T21:10:11.376Z,6.20
2023-01-08T21:13:09.909Z,6.20
2023-01-08T21:16:01.487Z,6.30
2023-01-08T21:18:45.220Z,6.40
2023-01-08T21:21:40.895Z,6.20
2023-01-08T21:24:31.445Z,6.20
2023-01-08T21:27:19.044Z,6.40
2023-01-08T21:30:01.976Z,6.50
2023-01-08T21:32:49.695Z,6.50
2023-01-08T21:35:32.568Z,6.60
2023-01-08T21:38:22.405Z,6.60
2023-01-08T21:41:10.453Z,6.70
2023-01-08T21:44:16.808Z,6.70
2023-01-08T21:46:58.278Z,6.70
2023-01-08T21:49:38.950Z,6.60
2023-01-08T21:52:45.355Z,6.60
2023-01-08T21:55:34.157Z,6.60
2023-01-08T21:58:15.333Z,6.80
2023-01-08T22:01:03.219Z,6.70
2023-01-08T22:03:44.233Z,6.60
2023-01-08T22:06:31.471Z,6.60
2023-01-08T22:09:12.339Z,6.70
2023-01-08T22:12:00.194Z,6.70
2023-01-08T22:14:41.233Z,6.50
2023-01-08T22:17:30.683Z,6.50
2023-01-08T22:20:13.729Z,6.50
2023-01-08T22:23:00.275Z,6.60
2023-01-08T22:25:41.357Z,6.60
2023-01-08T22:28:21.881Z,6.60
2023-01-08T22:31:10.662Z,6.70
2023-01-08T22:34:01.371Z,6.50
2023-01-08T22:36:42.275Z,6.60
2023-01-08T22:39:23.006Z,6.40
2023-01-08T22:42:11.569Z,6.20
2023-01-08T22:44:58.361Z,6.10
2023-01-08T22:47:39.376Z,6.00
2023-01-08T22:50:19.948Z,5.90
2023-01-08T22:53:08.689Z,5.80
2023-01-08T22:55:55.209Z,5.60
2023-01-08T22:58:36.556Z,5.70
2023-01-08T23:01:31.364Z,5.50
2023-01-08T23:04:12.252Z,5.30
2023-01-08T23:07:06.214Z,5.50
2023-01-08T23:09:54.638Z,5.50
2023-01-08T23:12:35.234Z,5.40
2023-01-08T23:15:22.145Z,5.50
2023-01-08T23:18:03.628Z,5.40
2023-01-08T23:20:50.362Z,5.30
2023-01-08T23:23:31.711Z,5.20
2023-01-08T23:26:28.552Z,5.10
2023-01-08T23:29:09.015Z,5.10
2023-01-08T23:31:57.295Z,5.00
2023-01-08T23:34:44.655Z,5.00
2023-01-08T23:37:25.444Z,4.90
2023-01-08T23:40:12.205Z,4.70
2023-01-08T23:42:53.302Z,4.60
2023-01-08T23:45:43.713Z,4.50
2023-01-08T23:48:24.347Z,4.30
2023-01-08T23:51:11.309Z,4.20
2023-01-08T23:53:52.610Z,4.20
2023-01-08T23:56:39.322Z,4.10
2023-01-08T23:59:20.265Z,4.10
